Details From LDDU - Dubrovnik
To LGRP - Diagoras
Flight Number -
Tags Decoded
Created
Modified
Stats Distance 623 nm / 1,154 km
Max Altitude 0 ft / 0 m
Waypoints 7
Social Downloads 1
Likes 0
Share VATSIM

Download

Looking for another format? Having issues loading an existing format? Contact us
Advertisement - Login to hide

Notes

Decoded

Route

LDDU TAZ TRN BDR MARIS SOTIV LGRP

ID Type Via Altitude Latitude Longitude Leg Dist Tot Dist Heading (true) Name
O LDDU APT - 0 ft / 0 m 42.56986˚ 18.24681˚ - 0 nm - -
TAZ NDB - 0 ft / 0 m 42.28197˚ 18.80039˚ 30 nm 30 nm 125° / 125° TIVAT NDB
TRN VOR - 0 ft / 0 m 41.41613˚ 19.71819˚ 66 nm 96 nm 141° / 142° TIRANA VOR-DME
BDR NDB - 0 ft / 0 m 37.25333˚ 27.66917˚ 445 nm 541 nm 122° / 127° MILAS BODRUM NDB
MARIS FIX - 0 ft / 0 m 36.90000˚ 28.28333˚ 36 nm 578 nm 126° / 126° -
SOTIV FIX - 0 ft / 0 m 36.55000˚ 28.48333˚ 23 nm 601 nm 155° / 155° -
O LGRP APT - 0 ft / 0 m 36.40034˚ 28.06887˚ 21 nm 623 nm 246° / 246° -

Altitude Profile

Advertisement - Login to hide

Weather


0- 5 10 15 20 25 30 35+ Temperature / ° C

Clouds and Precipitation
Forecast for 2018-05-24 00:00 UTC. Updated 2 hours ago

Ground ~20,000 ft ~40,000 ft Winds

LDDU

Details ICAO LDDU (DBV)
Name DUBROVNIK
Region Croatia
Timezone Europe/Zagreb (UTC+2.0)
Stats Elevation 527 ft / 161 m (AMSL)
Location 42.562840° 18.264499°
Runways 1
Magnetic Variation 4.146° E

METAR

LDDU 240100Z 08004KT 040V100 9999 FEW030 17/15 Q1015

Decode

TAF

TAF LDDU 232325Z 2400/2500 02010KT CAVOK TX25/2413Z TN17/2404Z TEMPO 2400/2406 08008KT BECMG 2408/2410 29008KT PROB30 TEMPO 2411/2416 02015KT -TSRA FEW035CB SCT040 BECMG 2417/2419 02010KT

Decode

Departure Runways

ID Width Length Bearing (true) Bearing (mag) Surface Threshold Offset Overrun Length
12 148 ft / 45 m 10,803 ft / 3,293 m 118.30° 114.15° Asphalt 488 ft / 149 m 100 ft / 30 m
30 148 ft / 45 m 10,803 ft / 3,293 m 298.33° 294.18° Asphalt 0 ft / 0 m 100 ft / 30 m

LGRP

Details ICAO LGRP (RHO)
Name DIAGORAS
Region Greece
Timezone Europe/Athens (UTC+3.0)
Stats Elevation 17 ft / 5 m (AMSL)
Location 36.405420° 28.086193°
Runways 1
Magnetic Variation 4.822° E

METAR

LGRP 240050Z 00000KT CAVOK 22/19 Q1011 NOSIG

Decode

TAF

TAF LGRP 232300Z 2400/2424 VRB05KT 9999 FEW020 BECMG 2406/2408 25016KT

Decode

Destination Runways

ID Width Length Bearing (true) Bearing (mag) Surface Threshold Offset Overrun Length
07 148 ft / 45 m 10,830 ft / 3,301 m 69.97° 65.15° Asphalt 0 ft / 0 m 0 ft / 0 m
25 148 ft / 45 m 10,830 ft / 3,301 m 249.99° 245.17° Asphalt 0 ft / 0 m 0 ft / 0 m

Approach Navaids

Runway Type Ident Frequency Range Bearing (true) Bearing (mag) Slope Elevation
25 Localiser IRDS 110.30 MHz 18 nm / 33 km 250.45° 245.62° - 17 ft / 5 m (AMSL)
25 Glidescope IRDS 110.30 MHz 10 nm / 19 km 249.98° 245.16° 3.00° 17 ft / 5 m (AMSL)

Popular Alternatives